Time;durP1;ratioP1;P1;durP2;ratioP2;P2;SDS_P1;SDS_P2;PMS_P1;PMS_P2;Temp;Humidity;BMP_temperature;BMP_pressure;BME280_temperature;BME280_humidity;BME280_pressure;Samples;Min_cycle;Max_cycle;Signal;HPM_P1;HPM_P2
2023/01/13 00:01:50;;;;;;;26.23;13.57;;;9.90;90.70;;;;;;6307645;22;20433;-91
2023/01/13 00:04:15;;;;;;;19.45;12.52;;;9.80;90.70;;;;;;6307267;22;20035;-84
2023/01/13 00:06:41;;;;;;;21.60;13.88;;;9.70;90.90;;;;;;6307501;22;19999;-89
2023/01/13 00:09:07;;;;;;;23.83;16.17;;;9.60;91.10;;;;;;6306090;22;20006;-84
2023/01/13 00:11:33;;;;;;;25.02;15.43;;;9.60;91.10;;;;;;6308473;22;20073;-83
2023/01/13 00:13:59;;;;;;;21.70;14.05;;;9.60;91.00;;;;;;6310674;22;20031;-84
2023/01/13 00:16:24;;;;;;;21.65;14.35;;;9.50;90.90;;;;;;6310256;22;20420;-85
2023/01/13 00:18:50;;;;;;;20.30;14.13;;;9.60;90.90;;;;;;6310352;22;20003;-84
2023/01/13 00:21:17;;;;;;;20.52;13.90;;;9.70;90.80;;;;;;6310548;22;20010;-84
2023/01/13 00:23:44;;;;;;;28.77;13.68;;;9.70;90.60;;;;;;6310241;22;20007;-84
2023/01/13 00:26:15;;;;;;;19.25;12.85;;;9.70;90.70;;;;;;6310062;22;20077;-84
2023/01/13 00:28:41;;;;;;;22.38;14.18;;;9.70;90.60;;;;;;6310080;22;20000;-84
2023/01/13 00:31:16;;;;;;;25.52;14.15;;;9.80;90.60;;;;;;6310281;22;20095;-85
2023/01/13 00:33:42;;;;;;;22.10;14.32;;;9.90;90.60;;;;;;6310646;22;20000;-85
2023/01/13 00:36:11;;;;;;;22.23;13.77;;;9.90;90.50;;;;;;6309902;22;20007;-85
2023/01/13 00:38:37;;;;;;;19.35;13.77;;;10.00;90.60;;;;;;6283356;22;20014;-84
2023/01/13 00:41:09;;;;;;;20.38;13.43;;;10.00;90.50;;;;;;6309908;22;20056;-85
2023/01/13 00:43:35;;;;;;;20.55;11.55;;;10.00;90.40;;;;;;6310302;22;20023;-85
2023/01/13 00:46:03;;;;;;;18.17;11.82;;;10.00;90.30;;;;;;6310034;22;19995;-85
2023/01/13 00:48:29;;;;;;;15.63;11.85;;;10.00;90.20;;;;;;6309486;22;20049;-85
2023/01/13 00:51:03;;;;;;;23.25;12.85;;;10.00;90.30;;;;;;6309995;22;20006;-86
2023/01/13 00:53:33;;;;;;;15.63;11.55;;;10.10;89.70;;;;;;6282860;22;20409;-85
2023/01/13 00:56:04;;;;;;;14.90;10.65;;;10.10;89.60;;;;;;6310709;22;20015;-85
2023/01/13 00:58:34;;;;;;;18.58;10.50;;;10.10;89.80;;;;;;6309395;22;19999;-85
2023/01/13 01:01:01;;;;;;;13.95;10.20;;;10.10;89.60;;;;;;6309738;22;19999;-85
2023/01/13 01:03:28;;;;;;;15.57;10.43;;;10.20;89.30;;;;;;6309820;22;19999;-85
2023/01/13 01:05:54;;;;;;;15.75;10.05;;;10.20;89.10;;;;;;6310763;22;20019;-84
2023/01/13 01:08:19;;;;;;;15.43;10.43;;;10.20;89.00;;;;;;6309256;22;20002;-84
2023/01/13 01:10:45;;;;;;;16.02;10.90;;;10.20;88.70;;;;;;6310488;22;20033;-83
2023/01/13 01:13:15;;;;;;;16.42;10.55;;;10.20;88.40;;;;;;6310336;22;20006;-83
2023/01/13 01:15:42;;;;;;;14.13;10.00;;;10.20;88.20;;;;;;6310261;22;20007;-84
2023/01/13 01:18:08;;;;;;;16.25;9.90;;;10.20;88.00;;;;;;6310091;22;20010;-82
2023/01/13 01:20:35;;;;;;;15.07;10.65;;;10.20;87.90;;;;;;6310418;22;20078;-83
2023/01/13 01:23:01;;;;;;;16.08;10.77;;;10.20;87.80;;;;;;6309381;22;20436;-83
2023/01/13 01:25:27;;;;;;;14.23;10.57;;;10.20;87.50;;;;;;6281447;22;20007;-83
2023/01/13 01:27:52;;;;;;;16.40;11.10;;;10.20;87.30;;;;;;6307749;22;19995;-83
2023/01/13 01:30:18;;;;;;;16.00;10.98;;;10.00;86.80;;;;;;6308377;22;20002;-83
2023/01/13 01:32:44;;;;;;;18.13;11.60;;;10.20;87.10;;;;;;6308623;22;20026;-83
2023/01/13 01:35:10;;;;;;;21.88;12.05;;;10.20;87.10;;;;;;6308952;22;20010;-83
2023/01/13 01:37:35;;;;;;;18.25;12.65;;;10.10;86.80;;;;;;6307868;22;19999;-83
2023/01/13 01:40:01;;;;;;;21.10;14.75;;;9.80;86.80;;;;;;6307898;22;20008;-82
2023/01/13 01:45:20;;;;;;;21.80;15.20;;;9.20;89.50;;;;;;6308415;22;20042;-82
2023/01/13 01:47:51;;;;;;;25.80;16.95;;;9.20;90.10;;;;;;6307699;22;19999;-82
2023/01/13 01:50:18;;;;;;;28.98;17.48;;;9.00;90.50;;;;;;6308292;22;19995;-83
2023/01/13 01:52:50;;;;;;;27.02;17.20;;;8.80;90.70;;;;;;6308036;22;20519;-83
2023/01/13 01:55:23;;;;;;;31.05;19.65;;;8.70;91.00;;;;;;6308568;22;20003;-83
2023/01/13 01:58:06;;;;;;;20.02;13.90;;;8.70;91.10;;;;;;6307125;22;20448;-83
2023/01/13 02:00:32;;;;;;;29.90;16.10;;;8.80;91.10;;;;;;6307638;22;20003;-83
2023/01/13 02:02:59;;;;;;;24.52;15.88;;;8.70;91.20;;;;;;6308505;22;20004;-82
2023/01/13 02:05:25;;;;;;;21.45;14.43;;;8.70;91.40;;;;;;6307441;22;20003;-82
2023/01/13 02:07:53;;;;;;;22.08;14.18;;;8.80;91.20;;;;;;6307609;22;19995;-84
2023/01/13 02:10:22;;;;;;;27.13;15.65;;;8.90;91.00;;;;;;6308064;22;20000;-83
2023/01/13 02:12:49;;;;;;;20.80;14.38;;;9.10;90.90;;;;;;6308136;22;20470;-83
2023/01/13 02:15:19;;;;;;;18.95;13.85;;;9.20;90.80;;;;;;6308188;22;20010;-83
2023/01/13 02:18:02;;;;;;;21.40;14.13;;;9.30;90.70;;;;;;6307663;22;20035;-82
2023/01/13 02:21:02;;;;;;;20.80;13.82;;;9.40;90.60;;;;;;6308184;22;20010;-84
2023/01/13 02:26:42;;;;;;;29.50;17.55;;;9.30;90.60;;;;;;6308008;22;20015;-83
2023/01/13 02:32:52;;;;;;;21.40;14.65;;;9.10;91.00;;;;;;6308537;22;20010;-84
2023/01/13 02:35:36;;;;;;;25.00;15.93;;;9.20;90.80;;;;;;6263843;22;20008;-85
2023/01/13 02:38:03;;;;;;;23.60;16.42;;;9.40;90.60;;;;;;6280239;22;20491;-85
2023/01/13 02:40:37;;;;;;;22.13;14.93;;;9.30;90.80;;;;;;6308465;22;20421;-84
2023/01/13 02:46:13;;;;;;;22.55;15.35;;;9.30;90.80;;;;;;6307706;22;20137;-83
2023/01/13 02:48:40;;;;;;;22.85;14.60;;;9.20;90.90;;;;;;6307636;22;19999;-83
2023/01/13 02:51:15;;;;;;;21.73;15.02;;;9.30;90.80;;;;;;6306534;22;20429;-85
2023/01/13 02:54:04;;;;;;;20.83;13.85;;;9.30;90.80;;;;;;6307217;22;20074;-85
2023/01/13 02:56:33;;;;;;;26.83;15.10;;;9.40;90.80;;;;;;6306515;22;20086;-84
2023/01/13 02:59:00;;;;;;;24.27;16.38;;;9.50;90.80;;;;;;6279556;22;20008;-84
2023/01/13 03:01:26;;;;;;;22.48;14.90;;;9.50;90.60;;;;;;6308086;22;19995;-84
2023/01/13 03:03:52;;;;;;;29.75;18.73;;;9.40;90.50;;;;;;6307219;22;20035;-83
2023/01/13 03:06:46;;;;;;;24.38;16.90;;;9.10;90.60;;;;;;6306841;22;20046;-83
2023/01/13 03:09:39;;;;;;;21.27;15.35;;;8.90;91.10;;;;;;6306898;22;20049;-83
2023/01/13 03:12:19;;;;;;;20.45;14.32;;;8.80;91.30;;;;;;6307768;22;20006;-84
2023/01/13 03:15:07;;;;;;;21.10;13.88;;;8.90;91.20;;;;;;6307373;22;19999;-83
2023/01/13 03:17:39;;;;;;;22.33;15.45;;;9.00;91.40;;;;;;6306574;22;20004;-82
2023/01/13 03:20:27;;;;;;;24.05;14.98;;;9.10;91.00;;;;;;6307346;22;19999;-82
2023/01/13 03:22:56;;;;;;;19.80;13.57;;;9.20;90.90;;;;;;6307112;22;20003;-83
2023/01/13 03:25:28;;;;;;;22.00;15.45;;;9.20;90.70;;;;;;6307503;22;20004;-82
2023/01/13 03:28:04;;;;;;;18.67;13.32;;;9.30;90.60;;;;;;6306097;22;20052;-82
2023/01/13 03:30:42;;;;;;;22.30;13.90;;;9.30;90.50;;;;;;6307284;22;20074;-83
2023/01/13 03:33:16;;;;;;;21.58;14.18;;;9.30;90.30;;;;;;6306836;22;19995;-83
2023/01/13 03:35:50;;;;;;;21.48;13.77;;;9.30;90.40;;;;;;6307687;22;20477;-83
2023/01/13 03:38:29;;;;;;;18.38;12.88;;;9.30;90.50;;;;;;6306680;22;20410;-83
2023/01/13 03:41:10;;;;;;;18.20;12.63;;;9.30;90.40;;;;;;6307614;22;20038;-83
2023/01/13 03:46:38;;;;;;;21.25;13.40;;;9.20;90.40;;;;;;6306083;22;20049;-84
2023/01/13 03:49:06;;;;;;;15.00;11.45;;;9.20;90.40;;;;;;6307291;22;20010;-85
2023/01/13 03:51:36;;;;;;;19.33;12.70;;;9.20;90.40;;;;;;6306170;22;20364;-86
2023/01/13 03:54:07;;;;;;;23.33;13.25;;;9.20;90.50;;;;;;6307456;22;20027;-86
2023/01/13 03:56:40;;;;;;;18.08;11.68;;;9.00;90.30;;;;;;6306772;22;20010;-86
2023/01/13 03:59:09;;;;;;;18.88;12.70;;;9.00;90.50;;;;;;6306553;22;20090;-87
2023/01/13 04:01:44;;;;;;;23.40;12.82;;;9.10;90.50;;;;;;6307231;22;20333;-86
2023/01/13 04:04:25;;;;;;;15.10;11.15;;;9.10;90.40;;;;;;6307214;22;20003;-86
2023/01/13 04:07:01;;;;;;;19.17;12.43;;;9.10;90.40;;;;;;6278763;22;20012;-86
2023/01/13 04:09:54;;;;;;;16.58;11.05;;;9.10;90.20;;;;;;6307204;22;19999;-86
2023/01/13 04:12:59;;;;;;;18.67;11.93;;;9.20;90.40;;;;;;6307189;22;19999;-85
2023/01/13 04:15:20;;;;;;;18.60;12.77;;;9.20;90.30;;;;;;6306444;22;20010;-84
2023/01/13 04:17:46;;;;;;;17.42;12.00;;;9.10;90.20;;;;;;6306560;22;20000;-83
2023/01/13 04:20:12;;;;;;;18.70;12.38;;;9.20;90.30;;;;;;6306526;22;20101;-82
2023/01/13 04:22:38;;;;;;;16.15;11.43;;;9.20;90.30;;;;;;6307377;22;20010;-84
2023/01/13 04:25:04;;;;;;;18.38;11.98;;;9.20;90.30;;;;;;6306814;22;20031;-84
2023/01/13 04:27:30;;;;;;;18.65;12.43;;;9.20;90.30;;;;;;6306523;22;20006;-84
2023/01/13 04:29:55;;;;;;;19.67;12.38;;;9.20;90.30;;;;;;6279135;22;20337;-85
2023/01/13 04:32:21;;;;;;;20.10;13.35;;;9.20;90.30;;;;;;6307605;22;19999;-84
2023/01/13 04:34:47;;;;;;;14.60;11.05;;;9.20;90.30;;;;;;6306600;22;19999;-85
2023/01/13 04:37:12;;;;;;;21.08;11.98;;;9.00;90.30;;;;;;6307012;22;20057;-86
2023/01/13 04:39:38;;;;;;;17.88;12.00;;;9.00;90.50;;;;;;6279219;22;20042;-86
2023/01/13 04:42:04;;;;;;;18.77;12.07;;;9.00;90.50;;;;;;6307208;22;20086;-83
2023/01/13 04:44:33;;;;;;;19.30;12.93;;;9.00;90.50;;;;;;6306338;22;20018;-84
2023/01/13 04:47:00;;;;;;;17.77;11.52;;;9.00;90.40;;;;;;6306168;22;20060;-84
2023/01/13 04:49:25;;;;;;;17.38;11.65;;;8.90;90.40;;;;;;6306400;22;20023;-83
2023/01/13 04:51:51;;;;;;;18.05;11.35;;;9.00;90.40;;;;;;6307123;22;20321;-84
2023/01/13 04:54:16;;;;;;;20.80;12.32;;;8.90;90.40;;;;;;6306769;22;20004;-85
2023/01/13 04:56:42;;;;;;;20.98;11.52;;;8.90;90.20;;;;;;6306411;22;20073;-84
2023/01/13 04:59:09;;;;;;;14.93;10.73;;;8.90;90.40;;;;;;6308416;22;20038;-84
2023/01/13 05:01:35;;;;;;;17.40;11.35;;;8.90;90.40;;;;;;6308909;22;20007;-84
2023/01/13 05:04:02;;;;;;;13.57;9.68;;;8.80;90.30;;;;;;6308407;22;20003;-83
2023/01/13 05:06:28;;;;;;;13.27;9.43;;;8.80;90.40;;;;;;6308197;22;20405;-83
2023/01/13 05:08:54;;;;;;;14.25;9.98;;;8.80;90.40;;;;;;6308778;22;20314;-84
2023/01/13 05:17:01;;;;;;;12.45;9.57;;;9.00;90.20;;;;;;6308437;22;20056;-84
2023/01/13 05:19:32;;;;;;;14.52;9.75;;;9.00;90.00;;;;;;6308214;22;20082;-83
2023/01/13 05:27:27;;;;;;;14.13;9.32;;;9.00;90.10;;;;;;6307801;22;20387;-83
2023/01/13 05:29:53;;;;;;;13.18;9.18;;;9.10;90.10;;;;;;6308555;22;20000;-83
2023/01/13 05:32:20;;;;;;;12.57;8.90;;;9.00;90.00;;;;;;6308228;22;20002;-84
2023/01/13 05:34:46;;;;;;;15.25;9.68;;;9.00;90.10;;;;;;6308300;22;20006;-84
2023/01/13 05:37:12;;;;;;;15.85;8.55;;;9.00;90.10;;;;;;6308056;22;19999;-85
2023/01/13 05:45:10;;;;;;;14.07;8.73;;;9.00;90.00;;;;;;6308935;22;20026;-83
2023/01/13 05:47:35;;;;;;;15.25;8.95;;;9.00;90.20;;;;;;6307792;22;20003;-83
2023/01/13 05:50:02;;;;;;;11.82;8.35;;;8.90;89.90;;;;;;6308115;22;20006;-83
2023/01/13 05:52:28;;;;;;;13.05;9.10;;;8.80;90.20;;;;;;6308501;22;20342;-83
2023/01/13 05:54:54;;;;;;;13.50;8.40;;;8.80;90.40;;;;;;6307614;22;19999;-84
2023/01/13 05:57:20;;;;;;;13.50;8.90;;;8.90;90.40;;;;;;6304010;22;20105;-83
2023/01/13 05:59:45;;;;;;;15.27;9.07;;;8.80;90.30;;;;;;6306456;22;20007;-83
2023/01/13 06:02:11;;;;;;;12.50;8.52;;;8.90;90.30;;;;;;6308634;22;20003;-83
2023/01/13 06:04:36;;;;;;;11.27;8.32;;;9.00;90.10;;;;;;6280111;22;20016;-84
2023/01/13 06:07:02;;;;;;;12.88;8.88;;;9.00;90.20;;;;;;6308207;22;20356;-85
2023/01/13 06:09:28;;;;;;;16.30;9.38;;;9.00;90.00;;;;;;6307457;22;19999;-84
2023/01/13 06:11:53;;;;;;;14.10;8.98;;;9.00;90.20;;;;;;6307138;22;20422;-84
2023/01/13 06:14:19;;;;;;;12.98;9.15;;;9.10;90.10;;;;;;6307797;22;20003;-84
2023/01/13 06:16:45;;;;;;;15.40;9.57;;;9.10;89.90;;;;;;6304977;22;20015;-85
2023/01/13 06:19:11;;;;;;;12.40;8.68;;;9.10;89.80;;;;;;6308218;22;20007;-85
2023/01/13 06:21:38;;;;;;;16.02;9.63;;;9.00;90.00;;;;;;6308263;22;20831;-84
2023/01/13 06:24:04;;;;;;;11.15;7.78;;;8.90;89.90;;;;;;6307083;22;20018;-84
2023/01/13 06:26:35;;;;;;;13.10;8.38;;;8.90;90.10;;;;;;6307929;22;20303;-84
2023/01/13 06:29:01;;;;;;;10.27;7.65;;;8.90;90.10;;;;;;6308798;22;20003;-85
2023/01/13 06:31:27;;;;;;;11.90;8.30;;;8.90;90.00;;;;;;6308121;22;20151;-86
2023/01/13 06:34:01;;;;;;;13.02;9.27;;;8.90;90.20;;;;;;6307958;22;20117;-84
2023/01/13 06:36:37;;;;;;;11.63;8.68;;;8.90;90.00;;;;;;6308108;22;20022;-85
2023/01/13 06:39:03;;;;;;;13.85;8.07;;;8.90;90.20;;;;;;6308042;22;20027;-85
2023/01/13 06:44:17;;;;;;;11.43;7.85;;;8.90;90.30;;;;;;6306593;22;20026;-84
2023/01/13 06:46:43;;;;;;;13.68;8.73;;;8.90;90.30;;;;;;6306747;22;20000;-83
2023/01/13 06:49:09;;;;;;;11.43;8.50;;;9.00;90.30;;;;;;6308297;22;19999;-83
2023/01/13 06:51:34;;;;;;;10.27;7.85;;;9.00;90.30;;;;;;6307472;22;20000;-84
2023/01/13 06:54:00;;;;;;;17.02;8.73;;;9.00;90.30;;;;;;6306955;22;20049;-84
2023/01/13 06:56:26;;;;;;;12.68;8.30;;;9.00;90.30;;;;;;6307101;22;20023;-86
2023/01/13 06:58:52;;;;;;;12.13;8.65;;;9.10;90.30;;;;;;6307394;22;20301;-86
2023/01/13 07:01:17;;;;;;;11.60;8.75;;;9.20;90.30;;;;;;6308234;22;20006;-87
2023/01/13 07:03:43;;;;;;;13.77;8.35;;;9.20;90.20;;;;;;6308179;22;20032;-84
2023/01/13 07:06:08;;;;;;;13.95;8.43;;;9.20;90.20;;;;;;6307493;22;19999;-85
2023/01/13 07:08:34;;;;;;;15.88;8.13;;;9.20;90.20;;;;;;6307921;22;20030;-82
2023/01/13 07:11:03;;;;;;;14.57;8.25;;;9.20;90.20;;;;;;6280802;22;20003;-83
2023/01/13 07:16:13;;;;;;;10.68;6.78;;;9.30;90.20;;;;;;6310144;22;20018;-83
2023/01/13 07:18:39;;;;;;;13.10;7.18;;;9.20;90.10;;;;;;6313722;22;20082;-79
2023/01/13 07:21:07;;;;;;;11.95;7.82;;;9.20;90.90;;;;;;6308976;22;20007;-82
2023/01/13 07:23:43;;;;;;;15.15;7.25;;;9.20;90.70;;;;;;6307077;22;20283;-78
2023/01/13 07:26:11;;;;;;;13.70;8.32;;;9.30;90.50;;;;;;6307690;22;20079;-78
2023/01/13 07:28:37;;;;;;;13.52;9.40;;;9.30;90.60;;;;;;6307341;22;20000;-78
2023/01/13 07:31:04;;;;;;;12.65;8.13;;;9.10;90.10;;;;;;6305509;22;20078;-78
2023/01/13 07:33:31;;;;;;;14.02;8.70;;;9.00;90.40;;;;;;6280224;22;20006;-78
2023/01/13 07:36:00;;;;;;;13.27;8.73;;;9.00;90.40;;;;;;6306464;22;19999;-78
2023/01/13 07:38:26;;;;;;;12.43;9.20;;;8.90;90.60;;;;;;6309881;22;19995;-80
2023/01/13 07:40:52;;;;;;;11.48;8.07;;;8.90;90.90;;;;;;6306951;22;19999;-79
2023/01/13 07:43:33;;;;;;;10.73;7.25;;;8.80;90.90;;;;;;6306413;22;20015;-78
2023/01/13 07:46:04;;;;;;;11.82;7.95;;;8.80;90.80;;;;;;6306376;22;20047;-77
2023/01/13 07:48:31;;;;;;;11.00;6.95;;;8.90;90.70;;;;;;6307475;22;19996;-78
2023/01/13 07:51:01;;;;;;;11.43;8.60;;;8.80;90.60;;;;;;6306441;22;19999;-78
2023/01/13 07:53:28;;;;;;;17.45;9.57;;;8.80;90.80;;;;;;6280228;22;20037;-79
2023/01/13 07:55:55;;;;;;;16.02;9.20;;;8.70;90.70;;;;;;6307314;22;20007;-77
2023/01/13 07:58:22;;;;;;;12.45;7.28;;;8.60;91.00;;;;;;6307341;22;20057;-78
2023/01/13 08:00:47;;;;;;;13.10;7.55;;;8.70;91.20;;;;;;6280196;22;20317;-79
2023/01/13 08:03:13;;;;;;;15.23;8.40;;;8.60;91.30;;;;;;6307186;22;20006;-79
2023/01/13 08:05:39;;;;;;;14.20;8.48;;;8.70;91.10;;;;;;6305736;22;20425;-79
2023/01/13 08:08:04;;;;;;;13.48;8.88;;;8.60;90.90;;;;;;6306768;22;20022;-79
2023/01/13 08:10:30;;;;;;;15.45;8.68;;;8.60;91.20;;;;;;6307548;22;19999;-79
2023/01/13 08:15:46;;;;;;;13.93;8.90;;;8.60;91.30;;;;;;6307815;22;20025;-78
2023/01/13 08:18:12;;;;;;;14.05;7.60;;;8.60;91.40;;;;;;6280243;22;20378;-77
2023/01/13 08:20:38;;;;;;;16.10;10.55;;;8.60;91.30;;;;;;6305628;22;20082;-78
2023/01/13 08:23:04;;;;;;;15.38;9.82;;;8.60;91.20;;;;;;6307794;22;20031;-78
2023/01/13 08:25:31;;;;;;;16.88;8.93;;;8.60;91.30;;;;;;6307700;22;20010;-77
2023/01/13 08:27:59;;;;;;;12.43;7.53;;;8.50;91.30;;;;;;6308020;22;20005;-78
2023/01/13 08:30:25;;;;;;;13.52;8.95;;;8.60;91.40;;;;;;6307434;22;20053;-78
2023/01/13 08:32:50;;;;;;;10.18;8.07;;;8.50;91.30;;;;;;6308280;22;20324;-78
2023/01/13 08:35:17;;;;;;;14.80;8.68;;;8.50;91.20;;;;;;6309488;22;20006;-78
2023/01/13 08:37:44;;;;;;;15.63;9.25;;;8.50;91.40;;;;;;6304197;22;20012;-77
2023/01/13 08:40:11;;;;;;;14.02;8.45;;;8.60;91.30;;;;;;6308338;22;20006;-78
2023/01/13 08:42:36;;;;;;;15.00;8.57;;;8.60;91.00;;;;;;6306274;22;20317;-78
2023/01/13 08:45:03;;;;;;;11.63;7.35;;;8.60;91.20;;;;;;6305700;22;20429;-78
2023/01/13 08:47:29;;;;;;;13.88;8.05;;;8.50;91.30;;;;;;6308391;22;20122;-78
2023/01/13 08:49:55;;;;;;;14.98;9.07;;;8.60;91.20;;;;;;6308164;22;20010;-78
2023/01/13 08:52:22;;;;;;;11.38;7.65;;;8.60;91.40;;;;;;6308397;22;19999;-78
2023/01/13 08:54:47;;;;;;;13.73;9.20;;;8.50;91.30;;;;;;6306899;22;20079;-77
2023/01/13 08:57:15;;;;;;;14.73;8.18;;;8.50;91.50;;;;;;6308085;22;20453;-79
2023/01/13 08:59:42;;;;;;;12.02;7.22;;;8.40;91.50;;;;;;6280799;22;20106;-79
2023/01/13 09:02:20;;;;;;;16.00;7.60;;;8.50;91.50;;;;;;6308157;22;20010;-79
2023/01/13 09:04:46;;;;;;;17.50;9.10;;;;;;;;;;6307520;22;20010;-79
2023/01/13 09:07:12;;;;;;;10.52;6.95;;;8.80;91.20;;;;;;6308032;22;20000;-79
2023/01/13 09:09:38;;;;;;;16.77;8.10;;;8.80;90.90;;;;;;6306545;22;20101;-79
2023/01/13 09:14:49;;;;;;;15.48;9.55;;;8.80;90.90;;;;;;6308135;22;20061;-79
2023/01/13 09:17:15;;;;;;;14.63;9.57;;;8.60;91.20;;;;;;6308425;22;20083;-79
2023/01/13 09:19:41;;;;;;;20.40;9.68;;;8.60;91.60;;;;;;6280644;22;20011;-79
2023/01/13 09:22:14;;;;;;;13.60;8.32;;;8.60;91.50;;;;;;6307927;22;20003;-78
2023/01/13 09:24:40;;;;;;;9.93;6.40;;;8.60;91.70;;;;;;6306686;22;20437;-78
2023/01/13 09:27:07;;;;;;;13.65;8.07;;;8.80;91.30;;;;;;6308253;22;20025;-81
2023/01/13 09:29:33;;;;;;;13.40;8.35;;;8.90;91.30;;;;;;6308044;22;20398;-80
2023/01/13 09:32:01;;;;;;;15.57;9.40;;;9.00;91.40;;;;;;6308042;22;20034;-80
2023/01/13 09:37:11;;;;;;;15.15;9.80;;;8.70;91.50;;;;;;6308253;22;20018;-81
2023/01/13 09:39:37;;;;;;;16.80;10.05;;;8.70;92.00;;;;;;6307293;22;20003;-79
2023/01/13 09:45:22;;;;;;;14.93;7.63;;;8.80;92.00;;;;;;6307235;22;20077;-79
2023/01/13 09:48:50;;;;;;;9.88;7.85;;;9.00;91.90;;;;;;6308004;22;20348;-78
2023/01/13 09:51:29;;;;;;;14.88;9.90;;;9.10;91.70;;;;;;6297243;22;20010;-77
2023/01/13 09:54:41;;;;;;;20.73;10.00;;;8.80;91.90;;;;;;6308153;22;19996;-78
2023/01/13 09:57:13;;;;;;;17.80;10.18;;;8.70;92.10;;;;;;6308152;22;20409;-79
2023/01/13 09:59:39;;;;;;;12.77;8.52;;;8.70;92.20;;;;;;6308138;22;20366;-79
2023/01/13 10:02:29;;;;;;;19.17;8.20;;;8.80;92.40;;;;;;6308023;22;20414;-79
2023/01/13 10:05:02;;;;;;;13.43;7.55;;;9.10;91.70;;;;;;6307815;22;20016;-79
2023/01/13 10:07:30;;;;;;;14.05;7.72;;;9.10;91.90;;;;;;6307897;22;19999;-79
2023/01/13 10:09:58;;;;;;;14.57;9.13;;;9.30;91.60;;;;;;6308403;22;20125;-79
2023/01/13 10:15:19;;;;;;;13.82;8.23;;;9.30;91.90;;;;;;6308462;22;20436;-79
2023/01/13 10:18:31;;;;;;;12.00;8.73;;;9.40;91.60;;;;;;6308754;22;20003;-81
2023/01/13 10:21:13;;;;;;;14.55;8.80;;;;;;;;;;6307381;22;20011;-81
2023/01/13 10:24:01;;;;;;;16.77;9.15;;;9.40;91.40;;;;;;6308362;22;20003;-80
2023/01/13 10:26:56;;;;;;;21.05;10.60;;;9.50;91.70;;;;;;6308292;22;19996;-81
2023/01/13 10:29:26;;;;;;;14.02;8.60;;;9.50;91.70;;;;;;6297216;22;20314;-81
2023/01/13 10:31:54;;;;;;;11.80;8.25;;;9.50;91.70;;;;;;6280810;22;20010;-78
2023/01/13 10:34:21;;;;;;;12.73;8.02;;;9.50;91.90;;;;;;6308089;22;20026;-80
2023/01/13 10:37:01;;;;;;;12.27;8.40;;;9.70;91.40;;;;;;6307982;22;20478;-81
2023/01/13 10:39:37;;;;;;;;;;;9.80;91.50;;;;;;6308689;22;20003;-81
2023/01/13 10:42:05;;;;;;;13.02;7.50;;;10.00;91.10;;;;;;6308228;22;20239;-80
2023/01/13 10:44:37;;;;;;;64.93;34.90;;;10.00;91.10;;;;;;6308375;22;20011;-79
2023/01/13 10:47:15;;;;;;;17.35;12.38;;;9.70;91.00;;;;;;6307791;22;20409;-80
2023/01/13 10:49:41;;;;;;;17.88;9.93;;;9.50;91.50;;;;;;6307400;22;20424;-79
2023/01/13 10:52:29;;;;;;;17.48;9.57;;;9.60;91.70;;;;;;6306571;22;19996;-79
2023/01/13 10:54:56;;;;;;;16.13;10.15;;;9.70;91.60;;;;;;6306915;22;20003;-79
2023/01/13 10:57:24;;;;;;;11.65;8.77;;;9.70;91.60;;;;;;6306569;22;20099;-79
2023/01/13 10:59:51;;;;;;;15.50;7.68;;;9.80;91.60;;;;;;6307910;22;20025;-75
2023/01/13 11:02:30;;;;;;;12.25;8.57;;;9.90;91.90;;;;;;6305969;22;20094;-76
2023/01/13 11:05:02;;;;;;;11.50;8.38;;;10.10;92.50;;;;;;6306892;22;20007;-78
2023/01/13 11:07:32;;;;;;;20.00;9.13;;;10.10;91.50;;;;;;6305439;22;20015;-78
2023/01/13 11:10:22;;;;;;;21.60;12.18;;;10.10;91.30;;;;;;6306119;22;20314;-78
2023/01/13 11:13:07;;;;;;;17.38;11.68;;;9.70;91.20;;;;;;6307256;22;19999;-78
2023/01/13 11:15:52;;;;;;;17.75;11.32;;;9.50;92.00;;;;;;6307359;22;20417;-77
2023/01/13 11:18:23;;;;;;;11.35;8.63;;;9.60;92.10;;;;;;6307130;22;19999;-78
2023/01/13 11:20:51;;;;;;;10.95;8.23;;;9.70;92.00;;;;;;6305986;22;20341;-78
2023/01/13 11:23:21;;;;;;;15.32;10.75;;;9.90;91.40;;;;;;6300833;22;20003;-77
2023/01/13 11:25:50;;;;;;;;;;;9.80;91.90;;;;;;6307299;22;20356;-77
2023/01/13 11:28:55;;;;;;;15.95;11.05;;;9.90;91.60;;;;;;6307270;22;19902;-77
2023/01/13 11:31:38;;;;;;;12.18;8.98;;;9.70;91.80;;;;;;6307196;22;20019;-77
2023/01/13 11:34:29;;;;;;;19.92;10.73;;;9.90;91.90;;;;;;6307231;22;20010;-77
2023/01/13 11:36:56;;;;;;;;;;;9.90;91.70;;;;;;6307474;22;19999;-77
2023/01/13 11:39:43;;;;;;;18.52;11.00;;;9.90;91.50;;;;;;6305566;22;19922;-77
2023/01/13 11:42:30;;;;;;;12.77;9.52;;;9.80;91.70;;;;;;6307400;22;19999;-77
2023/01/13 11:45:17;;;;;;;16.30;10.20;;;10.00;91.90;;;;;;6306964;22;20015;-77
2023/01/13 11:47:50;;;;;;;13.95;9.60;;;10.00;91.50;;;;;;6307800;22;20006;-77
2023/01/13 11:50:52;;;;;;;16.38;10.82;;;10.00;91.80;;;;;;6308000;22;20330;-78
2023/01/13 11:53:36;;;;;;;9.68;7.85;;;10.00;91.60;;;;;;6242438;22;20376;-79
2023/01/13 11:56:07;;;;;;;10.93;8.18;;;10.10;91.80;;;;;;6307108;22;19999;-79
2023/01/13 11:59:08;;;;;;;15.75;10.15;;;10.20;91.50;;;;;;6304452;22;20406;-80
2023/01/13 12:02:02;;;;;;;12.63;8.35;;;10.40;91.10;;;;;;6275445;22;20011;-80
2023/01/13 12:04:48;;;;;;;12.77;8.52;;;10.60;90.90;;;;;;6307209;22;19999;-81
2023/01/13 12:07:19;;;;;;;12.70;7.88;;;10.60;91.10;;;;;;6305718;22;20006;-80
2023/01/13 12:09:54;;;;;;;11.48;8.48;;;10.70;91.00;;;;;;6306889;22;20018;-80
2023/01/13 12:12:26;;;;;;;10.82;7.43;;;10.80;91.10;;;;;;6307002;22;20295;-80
2023/01/13 12:15:12;;;;;;;15.15;8.95;;;10.90;90.80;;;;;;6307498;22;20283;-80
2023/01/13 12:17:57;;;;;;;10.35;7.80;;;11.00;90.70;;;;;;6304846;22;20004;-79
2023/01/13 12:20:57;;;;;;;11.85;8.27;;;11.00;90.90;;;;;;6305387;22;20023;-79
2023/01/13 12:23:26;;;;;;;10.77;7.50;;;11.10;90.70;;;;;;6305758;22;20048;-79
2023/01/13 12:25:58;;;;;;;11.07;8.52;;;11.20;90.40;;;;;;6291730;22;20003;-80
2023/01/13 12:28:51;;;;;;;10.35;7.88;;;11.30;90.20;;;;;;6303596;22;20413;-80
2023/01/13 12:31:19;;;;;;;13.95;10.05;;;11.30;90.40;;;;;;6306316;22;20274;-80
2023/01/13 12:33:47;;;;;;;12.00;8.57;;;11.20;89.60;;;;;;6306712;22;20361;-79
2023/01/13 12:36:13;;;;;;;9.95;8.25;;;11.20;90.20;;;;;;6306579;22;20433;-80
2023/01/13 12:38:47;;;;;;;16.25;9.70;;;11.20;90.30;;;;;;6306358;22;20030;-80
2023/01/13 12:41:32;;;;;;;13.90;10.73;;;11.20;90.40;;;;;;6306663;22;20437;-80
2023/01/13 12:44:17;;;;;;;12.95;9.68;;;11.20;90.10;;;;;;6307156;22;20015;-82
2023/01/13 12:46:44;;;;;;;20.83;10.73;;;11.00;90.10;;;;;;6307190;22;20417;-81
2023/01/13 12:49:20;;;;;;;12.75;8.93;;;10.70;90.50;;;;;;6304760;22;20456;-80
2023/01/13 12:51:55;;;;;;;18.75;10.70;;;10.60;90.40;;;;;;6304156;22;20354;-81
2023/01/13 12:54:36;;;;;;;15.40;10.05;;;10.70;90.40;;;;;;6305210;22;20102;-82
2023/01/13 12:57:18;;;;;;;15.25;9.98;;;10.50;90.90;;;;;;6303042;22;19999;-80
2023/01/13 12:59:58;;;;;;;15.80;8.52;;;10.50;91.00;;;;;;6302344;22;20007;-82
2023/01/13 13:02:39;;;;;;;14.82;9.77;;;10.50;91.20;;;;;;6303994;22;20007;-80
2023/01/13 13:05:22;;;;;;;17.92;10.70;;;10.40;91.10;;;;;;6302878;22;20457;-81
2023/01/13 13:08:06;;;;;;;14.23;9.85;;;10.40;91.20;;;;;;6303260;22;20102;-78
2023/01/13 13:10:36;;;;;;;11.02;8.10;;;10.50;91.30;;;;;;6303372;22;20410;-77
2023/01/13 13:13:18;;;;;;;13.68;8.60;;;10.50;91.20;;;;;;6301204;22;20013;-79
2023/01/13 13:15:50;;;;;;;11.02;8.48;;;10.70;91.10;;;;;;6303648;22;20045;-79
2023/01/13 13:18:16;;;;;;;12.93;8.75;;;10.90;91.00;;;;;;6303554;22;20383;-80
2023/01/13 13:20:59;;;;;;;14.50;9.45;;;11.10;90.40;;;;;;6305873;22;20023;-80
2023/01/13 13:23:52;;;;;;;12.30;9.02;;;11.10;90.40;;;;;;6303857;22;20015;-79
2023/01/13 13:26:22;;;;;;;16.70;10.10;;;11.10;90.30;;;;;;6305046;22;19999;-79
2023/01/13 13:29:00;;;;;;;16.50;12.18;;;11.10;90.00;;;;;;6305522;22;20020;-81
2023/01/13 13:31:43;;;;;;;18.00;12.13;;;10.80;89.90;;;;;;6304763;22;20437;-80
2023/01/13 13:34:26;;;;;;;19.52;11.65;;;10.80;90.20;;;;;;6305376;22;20090;-81
2023/01/13 13:37:00;;;;;;;13.77;9.85;;;10.70;90.40;;;;;;6303986;22;20015;-81
2023/01/13 13:48:29;;;;;;;20.17;12.25;;;10.80;90.20;;;;;;6280602;22;20065;-80
2023/01/13 13:51:04;;;;;;;15.52;9.30;;;10.60;90.40;;;;;;6305286;22;20146;-78
2023/01/13 13:53:35;;;;;;;14.10;9.85;;;10.60;90.70;;;;;;6304662;22;19998;-79
2023/01/13 13:56:06;;;;;;;12.80;9.77;;;10.70;90.60;;;;;;6307704;22;20007;-79
2023/01/13 13:58:35;;;;;;;13.57;10.00;;;10.90;90.50;;;;;;6280109;22;20056;-80
2023/01/13 14:01:06;;;;;;;16.17;9.55;;;11.00;90.50;;;;;;6306046;22;20018;-82
2023/01/13 14:03:35;;;;;;;13.80;9.70;;;11.20;90.30;;;;;;6308627;22;20014;-79
2023/01/13 14:06:04;;;;;;;12.27;10.17;;;11.30;90.40;;;;;;6307785;22;20004;-81